createdAt,value
2024-02-18T00:02:22.094Z,16.40
2024-02-18T00:04:48.834Z,13.97
2024-02-18T00:07:15.499Z,17.60
2024-02-18T00:09:42.100Z,14.60
2024-02-18T00:12:08.690Z,14.87
2024-02-18T00:14:35.263Z,17.13
2024-02-18T00:17:02.260Z,15.80
2024-02-18T00:19:28.921Z,14.33
2024-02-18T00:21:55.534Z,15.10
2024-02-18T00:24:22.175Z,15.40
2024-02-18T00:26:58.643Z,14.10
2024-02-18T00:29:26.625Z,15.00
2024-02-18T00:31:53.974Z,16.00
2024-02-18T00:34:24.668Z,16.50
2024-02-18T00:36:52.464Z,13.80
2024-02-18T00:39:19.458Z,14.80
2024-02-18T00:41:45.992Z,14.80
2024-02-18T00:44:12.499Z,15.63
2024-02-18T00:46:45.445Z,15.23
2024-02-18T00:49:18.992Z,15.80
2024-02-18T00:51:46.574Z,14.43
2024-02-18T00:54:13.416Z,15.03
2024-02-18T00:56:40.035Z,14.37
2024-02-18T00:59:06.610Z,15.50
2024-02-18T01:01:33.310Z,16.03
2024-02-18T01:04:00.537Z,14.70
2024-02-18T01:06:27.195Z,15.60
2024-02-18T01:08:53.760Z,14.47
2024-02-18T01:11:20.260Z,15.80
2024-02-18T01:13:46.765Z,15.43
2024-02-18T01:16:13.558Z,15.93
2024-02-18T01:18:44.705Z,16.00
2024-02-18T01:21:12.176Z,14.73
2024-02-18T01:23:38.884Z,16.67
2024-02-18T01:26:06.073Z,14.77
2024-02-18T01:28:32.555Z,18.23
2024-02-18T01:30:59.211Z,17.30
2024-02-18T01:33:25.822Z,16.57
2024-02-18T01:35:52.353Z,16.10
2024-02-18T01:38:18.834Z,16.13
2024-02-18T01:40:45.456Z,16.10
2024-02-18T01:43:14.265Z,15.40
2024-02-18T01:45:42.016Z,15.40
2024-02-18T01:48:09.173Z,15.60
2024-02-18T01:50:36.150Z,15.87
2024-02-18T01:53:04.147Z,16.37
2024-02-18T01:55:33.123Z,16.50
2024-02-18T01:58:01.485Z,16.63
2024-02-18T02:00:28.704Z,17.93
2024-02-18T02:02:55.707Z,17.90
2024-02-18T02:05:22.527Z,17.50
2024-02-18T02:07:52.954Z,15.60
2024-02-18T02:10:20.121Z,17.07
2024-02-18T02:12:46.791Z,16.50
2024-02-18T02:15:13.825Z,17.43
2024-02-18T02:17:40.597Z,17.60
2024-02-18T02:20:11.955Z,15.97
2024-02-18T02:22:39.592Z,15.73
2024-02-18T02:25:09.971Z,15.70
2024-02-18T02:27:42.735Z,18.50
2024-02-18T02:30:09.692Z,16.00
2024-02-18T02:32:37.087Z,15.70
2024-02-18T02:35:04.667Z,17.10
2024-02-18T02:37:31.504Z,16.83
2024-02-18T02:39:58.265Z,16.93
2024-02-18T02:42:24.930Z,17.57
2024-02-18T02:44:51.739Z,16.87
2024-02-18T02:47:18.303Z,17.17
2024-02-18T02:49:44.927Z,15.90
2024-02-18T02:52:11.734Z,17.73
2024-02-18T02:54:38.374Z,16.17
2024-02-18T02:57:05.196Z,19.40
2024-02-18T02:59:31.716Z,17.80
2024-02-18T03:01:58.289Z,16.00
2024-02-18T03:04:25.097Z,16.80
2024-02-18T03:06:51.781Z,16.50
2024-02-18T03:09:18.505Z,18.90
2024-02-18T03:11:45.270Z,16.63
2024-02-18T03:14:11.784Z,19.10
2024-02-18T03:16:38.278Z,17.50
2024-02-18T03:19:05.342Z,16.90
2024-02-18T03:21:32.011Z,16.93
2024-02-18T03:23:58.654Z,15.70
2024-02-18T03:26:27.066Z,16.17
2024-02-18T03:28:54.062Z,15.43
2024-02-18T03:31:20.996Z,15.57
2024-02-18T03:33:48.056Z,15.27
2024-02-18T03:36:14.838Z,15.60
2024-02-18T03:38:41.431Z,15.07
2024-02-18T03:41:08.643Z,16.17
2024-02-18T03:43:35.748Z,16.40
2024-02-18T03:46:03.532Z,14.87
2024-02-18T03:48:30.523Z,15.10
2024-02-18T03:50:57.512Z,14.20
2024-02-18T03:53:24.184Z,14.10
2024-02-18T03:55:50.836Z,14.90
2024-02-18T03:58:17.553Z,15.60
2024-02-18T04:00:47.649Z,15.27
2024-02-18T04:03:15.095Z,17.00
2024-02-18T04:05:42.919Z,15.03
2024-02-18T04:08:09.965Z,15.53
2024-02-18T04:10:36.565Z,15.63
2024-02-18T04:13:03.378Z,15.70
2024-02-18T04:15:30.019Z,17.40
2024-02-18T04:17:56.719Z,17.60
2024-02-18T04:20:23.530Z,14.17
2024-02-18T04:22:50.114Z,16.43
2024-02-18T04:25:16.652Z,15.90
2024-02-18T04:27:43.374Z,16.53
2024-02-18T04:30:10.168Z,15.20
2024-02-18T04:32:36.770Z,13.70
2024-02-18T04:35:04.761Z,15.50
2024-02-18T04:37:31.541Z,15.20
2024-02-18T04:39:58.709Z,14.80
2024-02-18T04:42:25.576Z,17.80
2024-02-18T04:44:52.186Z,17.20
2024-02-18T04:47:18.802Z,16.07
2024-02-18T04:49:45.585Z,15.63
2024-02-18T04:52:12.257Z,16.07
2024-02-18T04:54:40.441Z,14.80
2024-02-18T04:57:07.664Z,17.17
2024-02-18T04:59:37.363Z,14.67
2024-02-18T05:02:04.422Z,15.33
2024-02-18T05:04:32.960Z,15.57
2024-02-18T05:07:01.164Z,16.43
2024-02-18T05:09:27.991Z,14.67
2024-02-18T05:11:55.511Z,15.90
2024-02-18T05:14:22.121Z,15.80
2024-02-18T05:16:49.200Z,14.80
2024-02-18T05:19:15.909Z,14.60
2024-02-18T05:21:43.432Z,13.23
2024-02-18T05:24:14.920Z,14.90
2024-02-18T05:26:41.472Z,14.07
2024-02-18T05:29:07.992Z,15.30
2024-02-18T05:31:36.136Z,15.80
2024-02-18T05:34:03.467Z,15.23
2024-02-18T05:36:30.588Z,13.13
2024-02-18T05:38:57.190Z,14.53
2024-02-18T05:41:23.750Z,13.20
2024-02-18T05:43:50.367Z,13.77
2024-02-18T05:46:17.107Z,13.60
2024-02-18T05:48:44.374Z,13.50
2024-02-18T05:51:10.949Z,14.50
2024-02-18T05:53:37.886Z,13.00
2024-02-18T05:56:04.752Z,12.23
2024-02-18T05:58:31.276Z,11.90
2024-02-18T06:00:58.021Z,11.63
2024-02-18T06:03:24.696Z,11.33
2024-02-18T06:05:52.076Z,13.40
2024-02-18T06:08:18.660Z,11.67
2024-02-18T06:10:45.301Z,12.20
2024-02-18T06:13:12.005Z,13.83
2024-02-18T06:15:38.723Z,14.80
2024-02-18T06:18:05.916Z,14.97
2024-02-18T06:20:32.630Z,13.40
2024-02-18T06:22:59.121Z,14.03
2024-02-18T06:25:25.665Z,15.53
2024-02-18T06:27:53.373Z,13.40
2024-02-18T06:30:20.101Z,13.47
2024-02-18T06:32:47.253Z,13.23
2024-02-18T06:35:13.963Z,13.80
2024-02-18T06:37:42.926Z,12.93
2024-02-18T06:40:11.222Z,13.90
2024-02-18T06:42:37.982Z,12.67
2024-02-18T06:45:05.155Z,13.73
2024-02-18T06:47:32.293Z,14.50
2024-02-18T06:49:59.223Z,13.07
2024-02-18T06:52:25.933Z,15.50
2024-02-18T06:54:52.565Z,14.07
2024-02-18T06:57:19.169Z,13.57
2024-02-18T06:59:45.702Z,13.70
2024-02-18T07:02:13.522Z,14.60
2024-02-18T07:04:40.197Z,15.53
2024-02-18T07:07:06.827Z,16.23
2024-02-18T07:09:33.505Z,14.80
2024-02-18T07:12:00.061Z,14.70
2024-02-18T07:14:26.579Z,15.20
2024-02-18T07:16:53.120Z,14.00
2024-02-18T07:19:19.744Z,13.73
2024-02-18T07:21:47.305Z,12.97
2024-02-18T07:24:13.955Z,12.30
2024-02-18T07:26:40.565Z,12.17
2024-02-18T07:29:07.105Z,12.57
2024-02-18T07:31:37.754Z,13.47
2024-02-18T07:34:07.813Z,12.30
2024-02-18T07:36:34.666Z,13.00
2024-02-18T07:39:01.584Z,14.40
2024-02-18T07:41:28.097Z,12.73
2024-02-18T07:43:54.765Z,15.63
2024-02-18T07:46:21.491Z,16.87
2024-02-18T07:48:48.214Z,14.97
2024-02-18T07:51:14.848Z,14.57
2024-02-18T07:53:41.320Z,14.17
2024-02-18T07:56:07.953Z,14.83
2024-02-18T07:58:34.813Z,15.30
2024-02-18T08:01:01.447Z,13.70
2024-02-18T08:03:28.078Z,15.57
2024-02-18T08:05:54.605Z,13.93
2024-02-18T08:08:21.129Z,14.40
2024-02-18T08:10:48.314Z,14.33
2024-02-18T08:13:15.083Z,14.93
2024-02-18T08:15:41.706Z,12.00
2024-02-18T08:18:09.781Z,13.43
2024-02-18T08:20:40.499Z,14.60
2024-02-18T08:23:08.164Z,14.20
2024-02-18T08:25:35.108Z,12.90
2024-02-18T08:28:02.080Z,14.57
2024-02-18T08:30:28.660Z,12.17
2024-02-18T08:32:55.464Z,13.93
2024-02-18T08:35:22.311Z,13.70
2024-02-18T08:37:51.814Z,14.57
2024-02-18T08:40:18.578Z,12.53
2024-02-18T08:42:45.701Z,11.40
2024-02-18T08:45:12.418Z,12.37
2024-02-18T08:47:39.103Z,13.30
2024-02-18T08:50:06.280Z,16.43
2024-02-18T08:52:32.883Z,12.17
2024-02-18T08:54:59.435Z,13.90
2024-02-18T08:57:26.089Z,12.53
2024-02-18T08:59:52.873Z,10.57
2024-02-18T09:02:20.125Z,10.83
2024-02-18T09:04:46.971Z,11.63
2024-02-18T09:07:13.704Z,13.30
2024-02-18T09:09:40.292Z,14.73
2024-02-18T09:12:07.323Z,13.23
2024-02-18T09:14:33.802Z,15.93
2024-02-18T09:17:00.307Z,15.10
2024-02-18T09:19:27.097Z,15.07
2024-02-18T09:21:53.896Z,13.67
2024-02-18T09:24:20.740Z,15.50
2024-02-18T09:26:47.246Z,14.43
2024-02-18T09:29:13.812Z,13.43
2024-02-18T09:31:40.458Z,15.33
2024-02-18T09:34:07.724Z,15.17
2024-02-18T09:36:34.663Z,14.80
2024-02-18T09:39:01.614Z,16.23
2024-02-18T09:41:28.941Z,16.20
2024-02-18T09:44:03.682Z,16.70
2024-02-18T09:46:35.497Z,16.70
2024-02-18T09:49:02.647Z,16.20
2024-02-18T09:51:29.713Z,16.17
2024-02-18T09:53:59.115Z,16.23
2024-02-18T09:56:25.714Z,17.57
2024-02-18T09:58:52.230Z,17.87
2024-02-18T10:01:22.118Z,17.40
2024-02-18T10:03:50.139Z,17.40
2024-02-18T10:06:16.912Z,16.70
2024-02-18T10:08:44.787Z,17.10
2024-02-18T10:11:11.558Z,17.63
2024-02-18T10:13:38.354Z,18.67
2024-02-18T10:16:05.457Z,16.07
2024-02-18T10:18:32.410Z,17.93
2024-02-18T10:20:59.175Z,17.80
2024-02-18T10:23:27.446Z,16.10
2024-02-18T10:25:54.101Z,18.00
2024-02-18T10:28:21.373Z,18.90
2024-02-18T10:30:48.197Z,17.13
2024-02-18T10:33:14.925Z,16.13
2024-02-18T10:35:44.171Z,18.60
2024-02-18T10:38:17.239Z,15.23
2024-02-18T10:40:49.213Z,17.03
2024-02-18T10:43:20.099Z,13.80
2024-02-18T10:45:47.691Z,13.80
2024-02-18T10:48:16.212Z,12.97
2024-02-18T10:50:46.976Z,15.17
2024-02-18T10:53:26.817Z,13.70
2024-02-18T10:56:01.699Z,8.77
2024-02-18T10:58:43.422Z,10.27
2024-02-18T11:01:13.864Z,8.50
2024-02-18T11:03:51.240Z,11.10
2024-02-18T11:06:19.078Z,7.13
2024-02-18T11:08:47.074Z,7.97
2024-02-18T11:11:14.295Z,6.70
2024-02-18T11:13:41.896Z,6.40
2024-02-18T11:16:15.576Z,5.50
2024-02-18T11:18:43.565Z,6.97
2024-02-18T11:21:14.186Z,5.70
2024-02-18T11:23:56.655Z,4.90
2024-02-18T11:26:23.722Z,5.90
2024-02-18T11:28:50.369Z,6.70
2024-02-18T11:31:27.295Z,6.63
2024-02-18T11:33:54.569Z,5.50
2024-02-18T11:36:24.346Z,5.50
2024-02-18T11:38:57.254Z,5.53
2024-02-18T11:41:32.299Z,4.70
2024-02-18T11:44:01.047Z,6.13
2024-02-18T11:46:29.298Z,6.30
2024-02-18T11:48:56.936Z,6.23
2024-02-18T11:51:24.758Z,5.63
2024-02-18T11:53:51.554Z,5.83
2024-02-18T11:56:18.239Z,4.70
2024-02-18T11:58:48.068Z,4.20
2024-02-18T12:01:20.556Z,6.20
2024-02-18T12:03:50.132Z,6.60
2024-02-18T12:06:16.746Z,4.57
2024-02-18T12:08:43.412Z,5.07
2024-02-18T12:11:10.286Z,4.37
2024-02-18T12:13:36.953Z,4.57
2024-02-18T12:16:05.548Z,4.77
2024-02-18T12:18:32.432Z,4.23
2024-02-18T12:20:59.213Z,3.87
2024-02-18T12:23:27.558Z,3.23
2024-02-18T12:25:55.073Z,4.67
2024-02-18T12:28:22.000Z,3.37
2024-02-18T12:30:50.109Z,4.10
2024-02-18T12:33:17.467Z,3.97
2024-02-18T12:35:44.671Z,3.67
2024-02-18T12:38:11.765Z,2.90
2024-02-18T12:40:41.115Z,2.90
2024-02-18T12:45:43.852Z,3.37
2024-02-18T12:48:15.941Z,3.23
2024-02-18T12:50:43.501Z,2.43
2024-02-18T12:53:10.598Z,2.70
2024-02-18T12:55:38.550Z,3.00
2024-02-18T12:58:05.634Z,2.60
2024-02-18T13:00:32.708Z,2.10
2024-02-18T13:03:01.954Z,2.47
2024-02-18T13:05:28.571Z,2.30
2024-02-18T13:07:57.661Z,2.80
2024-02-18T13:10:24.406Z,2.50
2024-02-18T13:12:51.362Z,2.23
2024-02-18T13:15:18.462Z,2.53
2024-02-18T13:17:49.756Z,1.60
2024-02-18T13:20:16.599Z,1.77
2024-02-18T13:22:44.030Z,2.10
2024-02-18T13:25:10.862Z,2.20
2024-02-18T13:27:37.544Z,2.37
2024-02-18T13:30:04.763Z,1.70
2024-02-18T13:32:31.513Z,1.80
2024-02-18T13:34:58.144Z,1.53
2024-02-18T13:37:24.767Z,1.47
2024-02-18T13:39:51.407Z,1.57
2024-02-18T13:42:21.647Z,1.87
2024-02-18T13:44:48.607Z,1.50
2024-02-18T13:47:15.434Z,1.63
2024-02-18T13:49:42.107Z,1.60
2024-02-18T13:52:09.224Z,2.30
2024-02-18T13:54:35.873Z,1.27
2024-02-18T13:57:02.558Z,1.30
2024-02-18T13:59:29.219Z,1.80
2024-02-18T14:01:55.822Z,1.67
2024-02-18T14:04:23.038Z,2.03
2024-02-18T14:06:49.622Z,2.20
2024-02-18T14:09:16.146Z,1.67
2024-02-18T14:11:43.462Z,2.27
2024-02-18T14:14:10.729Z,2.03
2024-02-18T14:16:37.609Z,2.60
2024-02-18T14:19:04.528Z,2.47
2024-02-18T14:21:31.761Z,2.60
2024-02-18T14:23:58.644Z,2.30
2024-02-18T14:26:25.494Z,1.80
2024-02-18T14:28:53.839Z,2.40
2024-02-18T14:31:20.556Z,2.10
2024-02-18T14:33:47.569Z,1.87
2024-02-18T14:36:16.105Z,2.13
2024-02-18T14:38:42.613Z,1.43
2024-02-18T14:41:10.477Z,2.33
2024-02-18T14:43:36.949Z,1.67
2024-02-18T14:46:03.512Z,2.27
2024-02-18T14:48:30.121Z,1.80
2024-02-18T14:50:56.651Z,2.00
2024-02-18T14:53:23.109Z,2.00
2024-02-18T14:55:49.741Z,1.73
2024-02-18T14:58:16.289Z,2.70
2024-02-18T15:00:42.890Z,1.80
2024-02-18T15:03:09.558Z,2.00
2024-02-18T15:05:36.165Z,2.00
2024-02-18T15:08:03.441Z,3.10
2024-02-18T15:10:31.240Z,2.77
2024-02-18T15:12:57.734Z,2.40
2024-02-18T15:15:24.356Z,2.70
2024-02-18T15:17:50.872Z,2.40
2024-02-18T15:20:17.539Z,1.50
2024-02-18T15:22:44.021Z,1.90
2024-02-18T15:25:12.164Z,1.57
2024-02-18T15:27:39.093Z,1.80
2024-02-18T15:30:06.559Z,1.53
2024-02-18T15:32:33.096Z,2.13
2024-02-18T15:34:59.735Z,1.97
2024-02-18T15:37:26.330Z,2.07
2024-02-18T15:39:52.873Z,2.10
2024-02-18T15:42:19.382Z,2.10
2024-02-18T15:44:45.862Z,1.93
2024-02-18T15:47:12.366Z,2.00
2024-02-18T15:49:39.983Z,2.17
2024-02-18T15:52:07.115Z,2.37
2024-02-18T15:54:33.649Z,1.80
2024-02-18T15:57:00.142Z,2.43
2024-02-18T15:59:27.155Z,2.40
2024-02-18T16:01:53.965Z,2.57
2024-02-18T16:04:20.980Z,2.87
2024-02-18T16:06:47.706Z,2.37
2024-02-18T16:09:14.203Z,1.83
2024-02-18T16:11:40.743Z,2.40
2024-02-18T16:14:07.224Z,2.10
2024-02-18T16:16:33.705Z,2.87
2024-02-18T16:19:00.403Z,3.00
2024-02-18T16:21:26.985Z,2.70
2024-02-18T16:23:59.533Z,2.80
2024-02-18T16:26:27.421Z,3.17
2024-02-18T16:28:54.038Z,3.40
2024-02-18T16:31:20.705Z,2.50
2024-02-18T16:33:47.278Z,2.40
2024-02-18T16:36:13.889Z,2.53
2024-02-18T16:38:42.404Z,2.80
2024-02-18T16:41:09.718Z,2.50
2024-02-18T16:43:36.233Z,2.57
2024-02-18T16:46:04.348Z,2.57
2024-02-18T16:48:36.130Z,2.20
2024-02-18T16:51:03.099Z,2.80
2024-02-18T16:53:29.643Z,3.30
2024-02-18T16:55:57.058Z,3.10
2024-02-18T16:58:23.859Z,2.70
2024-02-18T17:00:50.555Z,3.40
2024-02-18T17:03:17.209Z,2.77
2024-02-18T17:05:43.738Z,3.57
2024-02-18T17:08:12.112Z,3.37
2024-02-18T17:10:38.905Z,2.67
2024-02-18T17:13:09.087Z,3.23
2024-02-18T17:15:36.616Z,4.07
2024-02-18T17:18:03.561Z,3.47
2024-02-18T17:20:30.132Z,3.50
2024-02-18T17:22:56.751Z,3.40
2024-02-18T17:25:23.483Z,2.70
2024-02-18T17:27:50.077Z,3.50
2024-02-18T17:30:17.212Z,3.93
2024-02-18T17:32:44.383Z,5.33
2024-02-18T17:35:12.161Z,9.57
2024-02-18T17:37:38.788Z,10.40
2024-02-18T17:40:06.225Z,10.30
2024-02-18T17:42:33.003Z,11.13
2024-02-18T17:44:59.584Z,9.40
2024-02-18T17:47:29.105Z,8.70
2024-02-18T17:49:55.895Z,7.20
2024-02-18T17:52:22.615Z,6.40
2024-02-18T17:54:49.172Z,6.17
2024-02-18T17:57:15.750Z,5.63
2024-02-18T17:59:52.143Z,6.10
2024-02-18T18:02:18.736Z,5.67
2024-02-18T18:04:46.676Z,5.30
2024-02-18T18:07:13.547Z,4.43
2024-02-18T18:09:43.756Z,5.07
2024-02-18T18:12:11.450Z,4.87
2024-02-18T18:14:43.966Z,4.70
2024-02-18T18:17:10.642Z,5.60
2024-02-18T18:19:37.315Z,5.57
2024-02-18T18:22:03.995Z,6.07
2024-02-18T18:24:30.592Z,6.00
2024-02-18T18:26:57.073Z,5.70
2024-02-18T18:29:25.220Z,6.80
2024-02-18T18:31:52.923Z,6.80
2024-02-18T18:34:19.575Z,6.73
2024-02-18T18:36:46.250Z,6.63
2024-02-18T18:39:13.422Z,6.57
2024-02-18T18:41:41.014Z,9.27
2024-02-18T18:44:07.491Z,6.53
2024-02-18T18:46:35.324Z,7.00
2024-02-18T18:49:06.089Z,5.77
2024-02-18T18:51:33.333Z,5.77
2024-02-18T18:54:01.701Z,7.00
2024-02-18T18:56:28.491Z,6.60
2024-02-18T18:59:10.468Z,7.87
2024-02-18T19:02:36.838Z,6.83
2024-02-18T19:05:03.737Z,5.87
2024-02-18T19:07:33.553Z,6.90
2024-02-18T19:10:02.481Z,6.87
2024-02-18T19:12:30.428Z,6.60
2024-02-18T19:14:56.952Z,6.50
2024-02-18T19:17:25.851Z,8.00
2024-02-18T19:19:52.605Z,7.37
2024-02-18T19:22:20.511Z,7.47
2024-02-18T19:24:49.543Z,7.53
2024-02-18T19:27:18.652Z,7.70
2024-02-18T19:29:46.206Z,6.87
2024-02-18T19:32:18.308Z,7.37
2024-02-18T19:34:45.995Z,8.60
2024-02-18T19:37:12.607Z,7.93
2024-02-18T19:39:39.552Z,7.80
2024-02-18T19:42:08.935Z,7.20
2024-02-18T19:44:40.226Z,8.70
2024-02-18T19:47:06.761Z,7.07
2024-02-18T19:49:33.392Z,7.40
2024-02-18T19:52:00.914Z,7.53
2024-02-18T19:54:29.642Z,7.77
2024-02-18T19:57:01.707Z,8.00
2024-02-18T19:59:28.242Z,7.90
2024-02-18T20:01:58.416Z,8.17
2024-02-18T20:04:25.202Z,7.53
2024-02-18T20:06:54.993Z,8.97
2024-02-18T20:09:21.648Z,8.50
2024-02-18T20:11:51.530Z,7.23
2024-02-18T20:14:19.536Z,8.47
2024-02-18T20:16:46.203Z,8.87
2024-02-18T20:19:15.964Z,9.40
2024-02-18T20:21:43.546Z,7.63
2024-02-18T20:24:10.322Z,9.87
2024-02-18T20:26:37.674Z,8.67
2024-02-18T20:29:04.388Z,9.77
2024-02-18T20:31:30.990Z,10.57
2024-02-18T20:33:57.557Z,9.13
2024-02-18T20:36:24.168Z,9.70
2024-02-18T20:38:51.401Z,10.10
2024-02-18T20:41:17.956Z,10.43
2024-02-18T20:43:44.465Z,9.27
2024-02-18T20:46:12.822Z,10.77
2024-02-18T20:48:40.298Z,10.40
2024-02-18T20:51:06.924Z,9.07
2024-02-18T20:53:33.633Z,10.23
2024-02-18T20:56:00.356Z,10.83
2024-02-18T20:58:26.949Z,10.87
2024-02-18T21:00:53.513Z,10.00
2024-02-18T21:03:21.971Z,11.50
2024-02-18T21:05:49.150Z,10.40
2024-02-18T21:08:15.799Z,9.53
2024-02-18T21:10:42.496Z,10.37
2024-02-18T21:13:09.188Z,9.33
2024-02-18T21:15:35.777Z,10.50
2024-02-18T21:18:02.594Z,10.47
2024-02-18T21:20:29.714Z,12.63
2024-02-18T21:22:56.266Z,10.30
2024-02-18T21:25:24.004Z,11.00
2024-02-18T21:27:50.878Z,11.13
2024-02-18T21:30:17.492Z,11.30
2024-02-18T21:32:44.133Z,12.97
2024-02-18T21:35:12.493Z,12.07
2024-02-18T21:37:39.214Z,11.50
2024-02-18T21:40:07.222Z,10.63
2024-02-18T21:42:35.472Z,11.90
2024-02-18T21:45:02.346Z,11.50
2024-02-18T21:47:28.950Z,11.13
2024-02-18T21:49:57.789Z,13.10
2024-02-18T21:52:24.549Z,12.27
2024-02-18T21:54:51.669Z,10.50
2024-02-18T21:57:18.825Z,12.50
2024-02-18T21:59:46.173Z,11.33
2024-02-18T22:02:13.021Z,13.00
2024-02-18T22:04:40.276Z,11.10
2024-02-18T22:07:13.825Z,11.53
2024-02-18T22:09:44.893Z,12.20
2024-02-18T22:12:11.637Z,13.10
2024-02-18T22:14:38.116Z,12.33
2024-02-18T22:17:04.710Z,11.30
2024-02-18T22:19:31.384Z,12.47
2024-02-18T22:21:58.000Z,11.27
2024-02-18T22:24:25.456Z,12.80
2024-02-18T22:26:52.183Z,11.77
2024-02-18T22:29:18.717Z,11.90
2024-02-18T22:31:45.392Z,11.33
2024-02-18T22:34:12.542Z,10.27
2024-02-18T22:36:40.291Z,9.73
2024-02-18T22:39:07.348Z,9.30
2024-02-18T22:41:34.487Z,8.33
2024-02-18T22:44:02.096Z,8.43
2024-02-18T22:46:28.667Z,7.50
2024-02-18T22:48:55.340Z,6.43
2024-02-18T22:51:22.514Z,6.40
2024-02-18T22:53:49.057Z,6.30
2024-02-18T22:56:15.560Z,6.30
2024-02-18T22:58:42.354Z,5.53
2024-02-18T23:01:09.688Z,4.90
2024-02-18T23:03:36.489Z,4.60
2024-02-18T23:06:03.241Z,4.63
2024-02-18T23:08:29.805Z,4.43
2024-02-18T23:10:56.563Z,4.00
2024-02-18T23:13:23.625Z,4.57
2024-02-18T23:15:50.361Z,5.57
2024-02-18T23:18:17.130Z,4.50
2024-02-18T23:20:44.153Z,5.23
2024-02-18T23:23:10.879Z,4.80
2024-02-18T23:25:37.464Z,3.70
2024-02-18T23:28:05.016Z,4.07
2024-02-18T23:30:31.660Z,5.90
2024-02-18T23:32:59.091Z,3.80
2024-02-18T23:35:25.750Z,4.77
2024-02-18T23:37:52.280Z,3.60
2024-02-18T23:40:19.212Z,4.10
2024-02-18T23:42:45.974Z,4.13
2024-02-18T23:45:12.558Z,3.90
2024-02-18T23:47:39.279Z,2.80
2024-02-18T23:50:06.419Z,3.40
2024-02-18T23:52:32.897Z,3.97
2024-02-18T23:55:00.042Z,5.40
2024-02-18T23:57:27.726Z,3.07
2024-02-18T23:59:54.324Z,3.13
